Time;durP1;ratioP1;P1;durP2;ratioP2;P2;SDS_P1;SDS_P2;PMS_P1;PMS_P2;Temp;Humidity;BMP_temperature;BMP_pressure;BME280_temperature;BME280_humidity;BME280_pressure;Samples;Min_cycle;Max_cycle;Signal;HPM_P1;HPM_P2
2022/12/04 00:01:28;;;;;;;58.05;25.95;;;1.00;99.90;;;;;;5092177;28;20068;-76
2022/12/04 00:03:56;;;;;;;66.53;25.77;;;1.00;99.90;;;;;;5094415;28;20085;-76
2022/12/04 00:06:23;;;;;;;58.22;24.90;;;1.00;99.90;;;;;;5093601;28;20032;-76
2022/12/04 00:08:49;;;;;;;58.53;24.30;;;1.00;99.90;;;;;;5093456;28;20123;-76
2022/12/04 00:11:18;;;;;;;63.80;25.58;;;1.00;99.90;;;;;;5094410;28;20032;-76
2022/12/04 00:13:44;;;;;;;62.38;25.70;;;1.00;99.90;;;;;;5092296;28;20115;-76
2022/12/04 00:16:13;;;;;;;57.88;25.13;;;1.00;99.90;;;;;;5092799;28;20044;-76
2022/12/04 00:18:39;;;;;;;61.63;25.02;;;1.00;99.90;;;;;;5094524;28;20146;-76
2022/12/04 00:21:07;;;;;;;59.65;26.95;;;1.00;99.90;;;;;;5093006;28;20044;-76
2022/12/04 00:23:34;;;;;;;59.97;24.92;;;1.00;99.90;;;;;;5091924;28;20110;-76
2022/12/04 00:26:01;;;;;;;55.88;24.20;;;1.00;99.90;;;;;;5093527;28;20036;-76
2022/12/04 00:28:27;;;;;;;65.22;26.75;;;1.00;99.90;;;;;;5106525;22;20044;-67
2022/12/04 00:30:53;;;;;;;63.72;27.13;;;1.00;99.90;;;;;;5070050;28;20047;-69
2022/12/04 00:33:18;;;;;;;61.83;25.65;;;1.00;99.90;;;;;;5072961;28;20039;-69
2022/12/04 00:35:44;;;;;;;57.03;25.70;;;0.90;99.90;;;;;;5070404;28;20041;-69
2022/12/04 00:38:09;;;;;;;62.15;24.83;;;1.00;99.90;;;;;;5072544;28;20131;-69
2022/12/04 00:40:35;;;;;;;64.05;26.50;;;1.00;99.90;;;;;;5073171;28;20036;-69
2022/12/04 00:43:01;;;;;;;60.55;25.50;;;1.00;99.90;;;;;;5072701;28;20067;-69
2022/12/04 00:45:27;;;;;;;59.55;25.52;;;1.00;99.90;;;;;;5064601;28;20041;-68
2022/12/04 00:47:52;;;;;;;56.40;24.90;;;1.00;99.90;;;;;;5073519;28;20060;-68
2022/12/04 00:50:18;;;;;;;58.13;24.85;;;1.00;99.90;;;;;;5072862;28;20047;-68
2022/12/04 00:52:43;;;;;;;58.65;25.98;;;1.00;99.90;;;;;;5070126;28;20547;-69
2022/12/04 00:55:09;;;;;;;57.75;25.75;;;1.00;99.90;;;;;;5073943;28;20033;-69
2022/12/04 00:57:34;;;;;;;59.35;25.52;;;1.00;99.90;;;;;;5073115;28;20460;-69
2022/12/04 01:00:00;;;;;;;62.80;26.15;;;1.00;99.90;;;;;;5072969;28;20039;-68
2022/12/04 01:02:26;;;;;;;61.67;25.85;;;1.00;99.90;;;;;;5071761;28;20588;-69
2022/12/04 01:04:51;;;;;;;61.78;26.58;;;1.00;99.90;;;;;;5072108;28;20166;-69
2022/12/04 01:07:17;;;;;;;59.72;25.52;;;1.00;99.90;;;;;;5074151;28;20043;-69
2022/12/04 01:09:43;;;;;;;61.88;27.45;;;1.00;99.90;;;;;;5072455;28;20039;-68
2022/12/04 01:12:08;;;;;;;62.35;26.13;;;1.00;99.90;;;;;;5071888;28;20040;-69
2022/12/04 01:14:34;;;;;;;64.15;27.92;;;1.00;99.90;;;;;;5066411;28;20033;-69
2022/12/04 01:16:59;;;;;;;57.03;26.25;;;1.00;99.90;;;;;;5072161;28;20040;-69
2022/12/04 01:19:25;;;;;;;59.85;23.75;;;1.00;99.90;;;;;;5073138;28;20485;-69
2022/12/04 01:21:51;;;;;;;65.57;26.95;;;1.00;99.90;;;;;;5072438;28;20031;-69
2022/12/04 01:24:16;;;;;;;62.60;26.05;;;1.00;99.90;;;;;;5069661;28;20052;-69
2022/12/04 01:26:42;;;;;;;66.18;28.10;;;1.00;99.90;;;;;;5073159;28;20032;-69
2022/12/04 01:29:07;;;;;;;64.38;26.90;;;1.00;99.90;;;;;;5069540;28;20056;-69
2022/12/04 01:31:34;;;;;;;62.60;27.00;;;0.90;99.90;;;;;;5069565;28;20710;-69
2022/12/04 01:34:00;;;;;;;64.00;27.00;;;0.90;99.90;;;;;;5071805;28;20036;-69
2022/12/04 01:36:27;;;;;;;70.70;28.40;;;1.00;99.90;;;;;;5071475;28;20048;-69
2022/12/04 01:38:53;;;;;;;50.28;21.33;;;0.90;99.90;;;;;;5070233;28;20115;-69
2022/12/04 01:41:23;;;;;;;58.42;25.13;;;1.00;99.90;;;;;;5067570;28;20127;-69
2022/12/04 01:44:10;;;;;;;65.25;26.88;;;0.90;99.90;;;;;;5070517;28;20127;-69
2022/12/04 01:46:36;;;;;;;66.80;27.00;;;0.90;99.90;;;;;;5066818;28;20045;-68
2022/12/04 01:49:03;;;;;;;62.95;26.75;;;0.90;99.90;;;;;;5073174;28;20036;-69
2022/12/04 01:51:40;;;;;;;68.80;27.83;;;0.90;99.90;;;;;;5064858;28;20048;-69
2022/12/04 01:54:10;;;;;;;68.28;27.55;;;0.90;99.90;;;;;;5065314;28;20076;-69
2022/12/04 01:56:53;;;;;;;62.35;26.27;;;0.90;99.90;;;;;;5070747;28;20037;-69
2022/12/04 01:59:23;;;;;;;65.35;27.02;;;0.90;99.90;;;;;;5066708;28;20086;-69
2022/12/04 02:01:58;;;;;;;61.92;25.40;;;0.90;99.90;;;;;;5064315;28;20040;-69
2022/12/04 02:04:23;;;;;;;64.68;27.13;;;0.90;99.90;;;;;;5066985;28;20082;-69
2022/12/04 02:06:49;;;;;;;63.45;27.30;;;0.90;99.90;;;;;;5070503;28;20044;-69
2022/12/04 02:09:15;;;;;;;62.15;26.33;;;0.90;99.90;;;;;;5064398;28;20025;-69
2022/12/04 02:11:56;;;;;;;60.65;26.33;;;0.90;99.90;;;;;;5071940;28;20502;-68
2022/12/04 02:14:40;;;;;;;63.08;27.20;;;0.90;99.90;;;;;;5066864;28;20040;-69
2022/12/04 02:17:25;;;;;;;67.68;27.48;;;0.90;99.90;;;;;;5071539;28;20072;-68
2022/12/04 02:20:20;;;;;;;65.22;26.23;;;0.90;99.90;;;;;;5063501;28;20043;-69
2022/12/04 02:23:04;;;;;;;69.82;27.77;;;0.90;99.90;;;;;;5068750;28;20040;-69
2022/12/04 02:25:48;;;;;;;70.78;27.13;;;0.90;99.90;;;;;;5067525;28;20505;-68
2022/12/04 02:28:37;;;;;;;63.67;24.90;;;0.90;99.90;;;;;;5063175;28;20491;-69
2022/12/04 02:31:06;;;;;;;63.13;26.55;;;0.80;99.90;;;;;;5051383;28;20051;-69
2022/12/04 02:33:47;;;;;;;69.13;28.42;;;0.90;99.90;;;;;;5070437;28;20032;-69
2022/12/04 02:36:24;;;;;;;65.30;27.35;;;0.90;99.90;;;;;;5064806;28;20485;-69
2022/12/04 02:39:21;;;;;;;63.67;27.10;;;0.90;99.90;;;;;;5062379;28;20040;-69
2022/12/04 02:41:56;;;;;;;65.30;27.63;;;0.90;99.90;;;;;;5064826;28;20055;-69
2022/12/04 02:44:31;;;;;;;63.70;26.73;;;0.90;99.90;;;;;;5071524;28;20122;-69
2022/12/04 02:47:02;;;;;;;62.38;27.77;;;0.90;99.90;;;;;;5069961;28;20086;-69
2022/12/04 02:49:36;;;;;;;59.60;24.38;;;0.80;99.90;;;;;;5071483;28;20123;-69
2022/12/04 02:52:05;;;;;;;61.90;27.73;;;0.80;99.90;;;;;;5068393;28;20409;-69
2022/12/04 02:54:39;;;;;;;68.82;27.73;;;0.80;99.90;;;;;;5071403;28;20039;-69
2022/12/04 02:57:10;;;;;;;63.47;26.98;;;0.80;99.90;;;;;;5068553;28;20072;-68
2022/12/04 02:59:40;;;;;;;66.32;27.00;;;0.90;99.90;;;;;;5071865;28;20035;-69
2022/12/04 03:02:16;;;;;;;69.38;28.73;;;0.80;99.90;;;;;;5060510;28;20033;-68
2022/12/04 03:04:42;;;;;;;60.33;25.85;;;0.90;99.90;;;;;;5060110;28;20044;-68
2022/12/04 03:07:16;;;;;;;70.18;28.55;;;0.80;99.90;;;;;;5070793;28;20032;-68
2022/12/04 03:09:58;;;;;;;68.47;28.70;;;0.80;99.90;;;;;;5071842;28;20044;-69
2022/12/04 03:12:43;;;;;;;70.15;26.95;;;0.80;99.90;;;;;;5069547;28;20032;-68
2022/12/04 03:15:40;;;;;;;61.85;26.15;;;0.80;99.90;;;;;;5069917;28;20429;-68
2022/12/04 03:18:13;;;;;;;63.78;26.75;;;0.80;99.90;;;;;;5070467;28;20033;-68
2022/12/04 03:20:41;;;;;;;63.72;28.27;;;0.80;99.90;;;;;;5070737;28;20505;-68
2022/12/04 03:23:15;;;;;;;63.40;27.67;;;0.80;99.90;;;;;;5069422;28;20044;-68
2022/12/04 03:25:58;;;;;;;66.65;29.67;;;0.80;99.90;;;;;;5070030;28;20043;-68
2022/12/04 03:28:28;;;;;;;66.60;27.38;;;0.90;99.90;;;;;;5063924;28;20089;-68
2022/12/04 03:30:59;;;;;;;69.53;30.15;;;0.80;99.90;;;;;;5069317;28;20579;-68
2022/12/04 03:33:40;;;;;;;65.30;27.77;;;0.80;99.90;;;;;;5066446;28;20032;-68
2022/12/04 03:36:17;;;;;;;59.20;26.13;;;0.80;99.90;;;;;;5063762;28;20274;-68
2022/12/04 03:38:52;;;;;;;68.00;28.17;;;0.80;99.90;;;;;;5071352;28;20045;-68
2022/12/04 03:41:29;;;;;;;68.47;29.60;;;0.80;99.90;;;;;;5068797;28;20029;-68
2022/12/04 03:44:13;;;;;;;65.10;26.92;;;0.80;99.90;;;;;;5068074;28;20041;-68
2022/12/04 03:46:46;;;;;;;73.25;29.77;;;0.80;99.90;;;;;;5062488;28;20082;-69
2022/12/04 03:49:41;;;;;;;62.25;27.13;;;0.80;99.90;;;;;;5065110;28;20510;-68
2022/12/04 03:52:20;;;;;;;65.32;29.20;;;0.80;99.90;;;;;;5066814;28;20029;-68
2022/12/04 03:54:50;;;;;;;71.93;28.35;;;0.80;99.90;;;;;;5068426;28;20506;-68
2022/12/04 03:57:31;;;;;;;61.53;25.10;;;0.80;99.90;;;;;;5071496;28;20044;-68
2022/12/04 04:00:05;;;;;;;63.70;25.88;;;0.80;99.90;;;;;;5069203;28;20044;-68
2022/12/04 04:02:36;;;;;;;69.28;28.02;;;0.80;99.90;;;;;;5063508;28;20456;-68
2022/12/04 04:05:05;;;;;;;70.05;28.73;;;0.80;99.90;;;;;;5060924;28;20041;-68
2022/12/04 04:07:44;;;;;;;68.95;29.02;;;0.80;99.90;;;;;;5068178;28;20036;-68
2022/12/04 04:10:14;;;;;;;74.88;30.98;;;0.80;99.90;;;;;;5046968;28;20036;-69
2022/12/04 04:24:12;;;;;;;70.40;29.90;;;0.80;99.90;;;;;;5067285;28;20560;-68
2022/12/04 04:26:44;;;;;;;73.18;28.15;;;0.80;99.90;;;;;;5069577;28;20037;-69
2022/12/04 04:29:10;;;;;;;64.45;25.83;;;0.80;99.90;;;;;;5069545;28;20517;-68
2022/12/04 04:31:51;;;;;;;64.55;27.48;;;0.80;99.90;;;;;;5070730;28;20521;-68
2022/12/04 04:34:38;;;;;;;68.70;28.27;;;0.80;99.90;;;;;;5069993;28;20036;-68
2022/12/04 04:37:12;;;;;;;63.38;27.27;;;0.80;99.90;;;;;;5068452;28;20040;-68
2022/12/04 04:40:06;;;;;;;62.95;26.42;;;0.80;99.90;;;;;;5067621;28;20032;-69
2022/12/04 04:42:40;;;;;;;65.85;27.35;;;0.80;99.90;;;;;;5058755;28;20037;-68
2022/12/04 04:45:16;;;;;;;64.25;27.17;;;0.80;99.90;;;;;;5068707;28;20041;-68
2022/12/04 04:47:53;;;;;;;70.68;29.55;;;0.80;99.90;;;;;;5070307;28;20090;-68
2022/12/04 04:50:20;;;;;;;68.03;27.35;;;0.70;99.90;;;;;;5072011;28;20051;-68
2022/12/04 04:52:50;;;;;;;61.55;24.50;;;0.80;99.90;;;;;;5073502;28;20516;-68
2022/12/04 04:55:18;;;;;;;69.03;28.27;;;0.80;99.90;;;;;;5067940;28;20044;-69
2022/12/04 04:57:44;;;;;;;63.45;25.67;;;0.70;99.90;;;;;;5061920;28;20112;-68
2022/12/04 05:00:15;;;;;;;70.57;28.20;;;0.70;99.90;;;;;;5065609;28;20111;-69
2022/12/04 05:02:41;;;;;;;;;;;0.70;99.90;;;;;;5068035;28;20055;-69
2022/12/04 05:05:07;;;;;;;68.60;27.08;;;0.70;99.90;;;;;;5071077;28;20296;-69
2022/12/04 05:07:32;;;;;;;59.33;25.70;;;0.70;99.90;;;;;;5069746;28;20040;-68
2022/12/04 05:09:58;;;;;;;69.82;29.00;;;0.70;99.90;;;;;;5073541;28;20040;-69
2022/12/04 05:12:24;;;;;;;65.30;27.58;;;0.70;99.90;;;;;;5071165;28;20083;-68
2022/12/04 05:14:49;;;;;;;66.10;26.67;;;0.70;99.90;;;;;;5073257;28;20043;-69
2022/12/04 05:17:16;;;;;;;65.75;25.52;;;0.70;99.90;;;;;;5066783;28;20054;-68
2022/12/04 05:19:54;;;;;;;67.25;27.80;;;0.70;99.90;;;;;;5068296;28;20117;-68
2022/12/04 05:22:28;;;;;;;68.65;26.38;;;0.70;99.90;;;;;;5072056;28;20041;-68
2022/12/04 05:24:54;;;;;;;73.95;29.25;;;0.70;99.90;;;;;;5073281;28;20391;-68
2022/12/04 05:27:21;;;;;;;70.57;27.35;;;0.70;99.90;;;;;;5069538;28;20333;-68
2022/12/04 05:29:46;;;;;;;68.35;27.45;;;0.70;99.90;;;;;;5072338;28;20040;-69
2022/12/04 05:32:12;;;;;;;72.53;28.35;;;0.80;99.90;;;;;;5070191;28;20029;-68
2022/12/04 05:34:38;;;;;;;64.93;26.80;;;0.70;99.90;;;;;;5073003;28;20028;-68
2022/12/04 05:37:03;;;;;;;72.13;30.02;;;0.70;99.90;;;;;;5068318;28;20523;-68
2022/12/04 05:39:29;;;;;;;67.70;28.95;;;0.70;99.90;;;;;;5068046;28;20044;-68
2022/12/04 05:41:54;;;;;;;65.85;28.00;;;0.70;99.90;;;;;;5072161;28;20390;-68
2022/12/04 05:44:20;;;;;;;67.35;28.35;;;0.70;99.90;;;;;;5066761;28;20178;-68
2022/12/04 05:46:45;;;;;;;67.35;26.27;;;0.70;99.90;;;;;;5070348;28;20033;-68
2022/12/04 05:49:11;;;;;;;66.40;27.45;;;0.70;99.90;;;;;;5072614;28;20032;-68
2022/12/04 05:51:37;;;;;;;64.55;28.10;;;0.70;99.90;;;;;;5068023;28;20468;-68
2022/12/04 05:54:02;;;;;;;59.25;24.88;;;0.70;99.90;;;;;;5072566;28;20036;-68
2022/12/04 05:56:28;;;;;;;67.93;28.25;;;0.70;99.90;;;;;;5064964;28;20430;-68
2022/12/04 05:58:53;;;;;;;65.13;26.45;;;0.70;99.90;;;;;;5071095;28;20436;-68
2022/12/04 06:01:22;;;;;;;67.22;28.48;;;0.70;99.90;;;;;;5070803;28;20425;-68
2022/12/04 06:03:48;;;;;;;66.15;26.33;;;0.70;99.90;;;;;;5070873;28;20502;-68
2022/12/04 06:06:19;;;;;;;66.93;26.70;;;0.70;99.90;;;;;;5071226;28;20081;-68
2022/12/04 06:08:45;;;;;;;;;;;0.70;99.90;;;;;;5069395;28;20032;-68
2022/12/04 06:11:15;;;;;;;64.05;25.05;;;0.70;99.90;;;;;;5069803;28;19916;-68
2022/12/04 06:13:43;;;;;;;66.28;27.38;;;0.70;99.90;;;;;;5070928;28;20127;-68
2022/12/04 06:16:16;;;;;;;64.00;25.80;;;0.70;99.90;;;;;;5070183;28;20079;-68
2022/12/04 06:18:42;;;;;;;59.78;28.02;;;0.70;99.90;;;;;;5069149;28;20032;-68
2022/12/04 06:21:08;;;;;;;57.88;24.60;;;0.70;99.90;;;;;;5070276;28;20037;-68
2022/12/04 06:23:34;;;;;;;63.13;27.63;;;0.70;99.90;;;;;;5069908;28;20032;-68
2022/12/04 06:26:05;;;;;;;59.75;24.77;;;0.70;99.90;;;;;;5070652;28;20059;-68
2022/12/04 06:31:04;;;;;;;64.13;26.08;;;0.70;99.90;;;;;;5069374;28;20048;-75
2022/12/04 06:33:30;;;;;;;65.63;25.75;;;0.70;99.90;;;;;;5064684;28;20041;-75
2022/12/04 06:36:03;;;;;;;63.72;25.38;;;0.70;99.90;;;;;;5070220;28;20044;-76
2022/12/04 06:38:29;;;;;;;60.28;25.70;;;0.70;99.90;;;;;;5071708;28;20068;-75
2022/12/04 06:40:55;;;;;;;61.20;23.90;;;0.70;99.90;;;;;;5059560;28;20061;-76
2022/12/04 06:43:22;;;;;;;65.80;25.83;;;0.70;99.90;;;;;;5049780;28;20037;-76
2022/12/04 06:45:48;;;;;;;55.65;24.83;;;0.70;99.90;;;;;;5051088;28;20036;-76
2022/12/04 06:48:13;;;;;;;57.75;25.45;;;0.70;99.90;;;;;;5050729;28;20029;-76
2022/12/04 06:50:39;;;;;;;60.65;24.83;;;0.70;99.90;;;;;;5056389;28;20036;-76
2022/12/04 06:53:05;;;;;;;57.55;24.88;;;0.70;99.90;;;;;;5062677;28;20028;-76
2022/12/04 06:55:30;;;;;;;58.97;24.90;;;0.70;99.90;;;;;;5054869;28;20051;-75
2022/12/04 06:57:56;;;;;;;62.25;25.85;;;0.70;99.90;;;;;;5045864;28;20045;-75
2022/12/04 07:00:22;;;;;;;64.20;26.35;;;0.70;99.90;;;;;;5049827;28;20032;-75
2022/12/04 07:02:47;;;;;;;60.15;26.10;;;0.70;99.90;;;;;;5048359;28;20029;-75
2022/12/04 07:05:13;;;;;;;60.70;25.75;;;0.70;99.90;;;;;;5059492;28;20528;-75
2022/12/04 07:07:39;;;;;;;65.30;25.63;;;0.70;99.90;;;;;;5049628;28;20051;-75
2022/12/04 07:10:05;;;;;;;57.75;25.27;;;0.60;99.90;;;;;;5049592;28;20490;-76
2022/12/04 07:12:31;;;;;;;62.08;25.95;;;0.70;99.90;;;;;;5049846;28;20060;-76
2022/12/04 07:14:57;;;;;;;62.58;25.80;;;0.70;99.90;;;;;;5045894;28;20060;-75
2022/12/04 07:17:22;;;;;;;63.45;25.90;;;0.60;99.90;;;;;;5055649;28;20035;-75
2022/12/04 07:19:48;;;;;;;67.07;27.23;;;0.70;99.90;;;;;;5053031;28;20029;-76
2022/12/04 07:22:14;;;;;;;66.93;27.77;;;0.60;99.90;;;;;;5047327;28;20040;-75
2022/12/04 07:24:39;;;;;;;62.60;27.90;;;0.60;99.90;;;;;;5049868;28;20067;-75
2022/12/04 07:27:05;;;;;;;65.65;25.73;;;0.60;99.90;;;;;;5049280;28;20106;-76
2022/12/04 07:29:30;;;;;;;72.25;28.20;;;0.60;99.90;;;;;;5047956;28;20051;-76
2022/12/04 07:31:56;;;;;;;59.83;25.75;;;0.60;99.90;;;;;;5046676;28;20572;-75
2022/12/04 07:34:22;;;;;;;64.35;26.55;;;0.60;99.90;;;;;;5057565;28;20048;-75
2022/12/04 07:36:48;;;;;;;69.10;26.38;;;0.60;99.90;;;;;;5048939;28;20060;-75
2022/12/04 07:39:13;;;;;;;68.47;26.65;;;0.70;99.90;;;;;;5041699;28;20078;-75
2022/12/04 07:41:39;;;;;;;62.25;26.40;;;0.70;99.90;;;;;;5045198;28;20493;-75
2022/12/04 07:44:04;;;;;;;65.47;27.23;;;0.60;99.90;;;;;;5048312;28;20032;-76
2022/12/04 07:46:30;;;;;;;60.72;24.50;;;0.70;99.90;;;;;;5046239;28;20037;-76
2022/12/04 07:48:57;;;;;;;64.38;26.15;;;0.70;99.90;;;;;;5044428;28;20033;-76
2022/12/04 07:51:26;;;;;;;64.97;27.63;;;0.70;99.90;;;;;;5044880;28;20082;-77
2022/12/04 07:53:52;;;;;;;67.60;26.33;;;0.70;99.90;;;;;;5047664;28;20116;-78
2022/12/04 07:56:19;;;;;;;68.15;27.75;;;0.70;99.90;;;;;;5045390;28;20518;-78
2022/12/04 07:58:45;;;;;;;62.10;26.13;;;0.70;99.90;;;;;;5046982;28;20055;-77
2022/12/04 08:01:12;;;;;;;61.05;24.92;;;0.70;99.90;;;;;;5044200;28;20094;-77
2022/12/04 08:03:42;;;;;;;67.55;25.98;;;0.70;99.90;;;;;;5045200;28;20047;-78
2022/12/04 08:06:08;;;;;;;61.47;26.73;;;0.70;99.90;;;;;;5049644;28;20611;-77
2022/12/04 08:08:34;;;;;;;67.65;26.55;;;0.70;99.90;;;;;;5048312;28;20040;-77
2022/12/04 08:11:05;;;;;;;62.33;26.95;;;0.70;99.90;;;;;;5051425;28;20056;-78
2022/12/04 08:13:31;;;;;;;74.03;26.52;;;0.80;99.90;;;;;;5049665;28;20029;-78
2022/12/04 08:16:01;;;;;;;63.30;27.52;;;0.70;99.90;;;;;;5045454;28;20517;-78
2022/12/04 08:18:26;;;;;;;62.20;25.92;;;0.80;99.90;;;;;;5045307;28;20602;-77
2022/12/04 08:20:52;;;;;;;70.10;27.60;;;0.80;99.90;;;;;;5046092;28;20041;-78
2022/12/04 08:23:18;;;;;;;65.53;27.15;;;0.80;99.90;;;;;;5047955;28;20573;-78
2022/12/04 08:25:43;;;;;;;59.15;25.30;;;0.80;99.90;;;;;;5052595;28;20398;-78
2022/12/04 08:28:10;;;;;;;63.03;25.58;;;0.80;99.90;;;;;;5051351;28;20588;-78
2022/12/04 08:30:36;;;;;;;69.85;26.13;;;0.80;99.90;;;;;;5052530;28;20029;-77
2022/12/04 08:33:01;;;;;;;71.03;27.60;;;0.80;99.90;;;;;;5050669;28;20040;-79
2022/12/04 08:35:27;;;;;;;71.20;25.92;;;0.80;99.90;;;;;;5054827;28;20041;-79
2022/12/04 08:37:53;;;;;;;63.97;25.02;;;0.80;99.90;;;;;;5051144;28;20655;-78
2022/12/04 08:40:18;;;;;;;62.90;26.52;;;0.80;99.90;;;;;;5050962;28;20039;-79
2022/12/04 08:42:44;;;;;;;68.15;25.38;;;0.80;99.90;;;;;;5061808;28;20041;-79
2022/12/04 08:45:10;;;;;;;65.57;27.77;;;0.80;99.90;;;;;;5051363;28;20111;-78
2022/12/04 08:47:35;;;;;;;67.03;25.88;;;0.80;99.90;;;;;;5066674;28;20040;-79
2022/12/04 08:50:01;;;;;;;68.93;26.75;;;0.90;99.90;;;;;;5050622;28;20407;-79
2022/12/04 08:52:26;;;;;;;60.72;24.23;;;0.90;99.90;;;;;;5046250;28;20064;-79
2022/12/04 08:54:52;;;;;;;62.45;24.77;;;0.90;99.90;;;;;;5051093;28;20448;-78
2022/12/04 08:57:18;;;;;;;62.13;26.42;;;0.90;99.90;;;;;;5047522;28;20120;-77
2022/12/04 08:59:43;;;;;;;77.82;27.75;;;0.90;99.90;;;;;;5050812;28;20036;-78
2022/12/04 09:02:12;;;;;;;61.78;26.60;;;1.00;99.90;;;;;;5060736;28;20045;-78
2022/12/04 09:04:38;;;;;;;63.13;25.13;;;1.00;99.90;;;;;;5047827;28;20048;-78
2022/12/04 09:07:03;;;;;;;67.20;24.70;;;1.00;99.90;;;;;;5062106;28;20029;-78
2022/12/04 09:09:29;;;;;;;64.00;25.52;;;1.00;99.90;;;;;;5058705;28;20040;-78
2022/12/04 09:11:55;;;;;;;68.13;26.52;;;1.00;99.90;;;;;;5046624;28;20040;-78
2022/12/04 09:14:24;;;;;;;63.10;25.50;;;1.00;99.90;;;;;;5052019;28;20047;-79
2022/12/04 09:16:51;;;;;;;63.67;24.63;;;1.10;99.90;;;;;;5049417;28;20270;-80
2022/12/04 09:19:16;;;;;;;68.68;27.13;;;1.10;99.90;;;;;;5051683;28;20501;-79
2022/12/04 09:21:42;;;;;;;70.07;27.75;;;1.10;99.90;;;;;;5047335;28;20142;-79
2022/12/04 09:24:08;;;;;;;69.60;27.58;;;1.10;99.90;;;;;;5045869;28;20036;-79
2022/12/04 09:26:33;;;;;;;67.22;26.30;;;1.10;99.90;;;;;;5063203;28;20510;-78
2022/12/04 09:29:01;;;;;;;59.55;25.40;;;1.10;99.90;;;;;;5047357;28;20223;-78
2022/12/04 09:31:27;;;;;;;63.08;21.67;;;1.20;99.90;;;;;;5065094;28;20040;-79
2022/12/04 09:33:53;;;;;;;64.35;24.98;;;1.20;99.90;;;;;;5064825;28;20033;-79
2022/12/04 09:36:19;;;;;;;67.55;25.33;;;1.20;99.90;;;;;;5051926;28;20037;-79
2022/12/04 09:38:50;;;;;;;64.63;25.88;;;1.20;99.90;;;;;;5048880;28;20047;-78
2022/12/04 09:41:35;;;;;;;64.68;25.73;;;1.20;99.90;;;;;;5065715;28;20090;-77
2022/12/04 09:44:13;;;;;;;65.50;27.55;;;1.20;99.90;;;;;;5072799;28;20054;-79
2022/12/04 09:46:49;;;;;;;65.93;26.65;;;1.30;99.90;;;;;;5051004;28;20071;-77
2022/12/04 09:49:24;;;;;;;65.38;26.50;;;1.30;99.90;;;;;;5053664;28;20100;-79
2022/12/04 09:51:53;;;;;;;66.72;25.02;;;1.30;99.90;;;;;;5044492;28;20029;-78
2022/12/04 09:54:34;;;;;;;60.17;27.30;;;1.30;99.90;;;;;;5055082;28;20045;-78
2022/12/04 09:57:04;;;;;;;70.57;27.58;;;1.30;99.90;;;;;;5049559;28;20025;-78
2022/12/04 09:59:31;;;;;;;64.68;26.70;;;1.30;99.90;;;;;;5051419;28;20037;-78
2022/12/04 10:02:24;;;;;;;67.70;26.65;;;1.30;99.90;;;;;;5050169;28;20041;-78
2022/12/04 10:04:49;;;;;;;66.72;27.65;;;1.40;99.90;;;;;;5055569;28;20125;-78
2022/12/04 10:07:23;;;;;;;66.88;27.25;;;1.40;99.90;;;;;;5050432;28;21200;-77
2022/12/04 10:10:00;;;;;;;65.40;26.95;;;1.40;99.90;;;;;;5058820;28;20393;-75
2022/12/04 10:12:42;;;;;;;65.68;26.98;;;1.40;99.90;;;;;;5073710;28;20048;-76
2022/12/04 10:15:21;;;;;;;57.95;26.10;;;1.40;99.90;;;;;;5040786;28;20032;-76
2022/12/04 10:18:07;;;;;;;59.42;24.48;;;1.50;99.90;;;;;;5049266;28;20055;-77
2022/12/04 10:20:55;;;;;;;68.90;26.92;;;1.50;99.90;;;;;;5049673;28;20033;-77
2022/12/04 10:23:53;;;;;;;63.67;27.98;;;1.50;99.90;;;;;;5058300;28;20124;-77
2022/12/04 10:26:24;;;;;;;62.65;24.95;;;1.50;99.90;;;;;;5049664;28;20040;-75
2022/12/04 10:28:58;;;;;;;62.88;26.42;;;1.50;99.90;;;;;;5051369;28;20043;-76
2022/12/04 10:31:26;;;;;;;60.28;23.90;;;1.50;99.90;;;;;;5049506;28;20058;-76
2022/12/04 10:34:00;;;;;;;59.03;24.98;;;1.50;99.90;;;;;;5050746;28;20041;-77
2022/12/04 10:36:33;;;;;;;61.20;25.08;;;1.60;99.90;;;;;;5051976;28;20040;-77
2022/12/04 10:39:25;;;;;;;56.10;23.58;;;1.50;99.90;;;;;;5048063;28;20387;-76
2022/12/04 10:42:05;;;;;;;56.42;25.00;;;1.60;99.90;;;;;;5047199;28;20041;-76
2022/12/04 10:44:31;;;;;;;60.78;24.98;;;1.60;99.90;;;;;;5051200;28;20509;-76
2022/12/04 10:47:00;;;;;;;56.72;24.30;;;1.60;99.90;;;;;;5057719;28;20155;-76
2022/12/04 10:49:35;;;;;;;54.83;22.90;;;1.60;99.90;;;;;;5047860;28;20086;-76
2022/12/04 10:52:00;;;;;;;54.47;23.10;;;1.60;99.90;;;;;;5052119;28;20041;-77
2022/12/04 10:54:36;;;;;;;57.13;25.42;;;1.70;99.90;;;;;;5046151;28;20029;-76
2022/12/04 10:57:05;;;;;;;52.28;22.67;;;1.70;99.90;;;;;;5044608;28;20040;-77
2022/12/04 10:59:31;;;;;;;50.78;22.00;;;1.70;99.90;;;;;;5052608;28;20595;-76
2022/12/04 11:02:11;;;;;;;53.53;23.20;;;1.80;99.90;;;;;;5047877;28;20059;-78
2022/12/04 11:04:38;;;;;;;50.00;21.42;;;1.80;99.90;;;;;;5049663;28;20683;-75
2022/12/04 11:07:09;;;;;;;53.50;22.38;;;1.80;99.90;;;;;;5071853;28;20066;-76
2022/12/04 11:09:35;;;;;;;56.33;22.27;;;1.80;99.90;;;;;;5047734;28;20550;-77
2022/12/04 11:12:16;;;;;;;46.25;19.95;;;1.80;99.90;;;;;;5044170;28;20055;-76
2022/12/04 11:14:42;;;;;;;48.78;20.70;;;1.90;99.90;;;;;;5054725;28;20037;-76
2022/12/04 11:17:16;;;;;;;50.97;20.40;;;1.90;99.90;;;;;;5044625;28;20048;-76
2022/12/04 11:19:42;;;;;;;47.50;20.75;;;2.00;99.90;;;;;;5048928;28;20163;-76
2022/12/04 11:22:17;;;;;;;43.00;18.60;;;1.90;99.90;;;;;;5046746;28;20119;-76
2022/12/04 11:24:50;;;;;;;41.58;19.55;;;2.00;99.90;;;;;;5048220;28;20049;-73
2022/12/04 11:27:22;;;;;;;42.38;17.83;;;2.00;99.90;;;;;;5059288;28;20029;-74
2022/12/04 11:29:49;;;;;;;38.10;17.02;;;2.10;99.90;;;;;;5045773;28;20055;-77
2022/12/04 11:32:28;;;;;;;48.17;20.65;;;2.10;99.90;;;;;;5049197;28;20029;-77
2022/12/04 11:34:59;;;;;;;42.22;17.60;;;2.10;99.90;;;;;;5045000;28;20044;-77
2022/12/04 11:37:29;;;;;;;41.58;18.55;;;2.20;99.90;;;;;;5045666;28;20037;-77
2022/12/04 11:39:55;;;;;;;37.65;18.85;;;2.20;99.90;;;;;;5057845;28;20045;-76
2022/12/04 11:42:26;;;;;;;41.45;18.95;;;2.20;99.90;;;;;;5055386;28;20032;-76
2022/12/04 11:44:54;;;;;;;;;;;2.20;99.90;;;;;;5050285;28;20116;-74
2022/12/04 11:47:22;;;;;;;36.58;17.27;;;2.30;99.90;;;;;;5046195;28;19916;-78
2022/12/04 11:50:16;;;;;;;37.28;17.48;;;2.30;99.90;;;;;;5046426;28;20397;-76
2022/12/04 11:52:59;;;;;;;30.52;15.05;;;2.30;99.90;;;;;;5052988;28;20037;-78
2022/12/04 11:55:40;;;;;;;29.45;13.82;;;2.40;99.90;;;;;;5044029;28;20075;-75
2022/12/04 11:58:44;;;;;;;34.22;14.95;;;2.40;99.90;;;;;;5049033;28;20493;-77
2022/12/04 12:01:37;;;;;;;37.13;16.90;;;2.40;99.90;;;;;;5061579;28;20051;-73
2022/12/04 12:04:31;;;;;;;35.53;15.77;;;2.40;99.90;;;;;;5047748;28;20485;-77
2022/12/04 12:07:25;;;;;;;33.50;14.88;;;2.40;99.90;;;;;;5061462;28;20041;-77
2022/12/04 12:10:14;;;;;;;32.80;15.23;;;2.40;99.90;;;;;;5049062;28;20056;-76
2022/12/04 12:13:31;;;;;;;30.05;14.35;;;2.40;99.90;;;;;;5067587;28;20087;-78
2022/12/04 12:16:06;;;;;;;33.42;14.95;;;2.40;99.90;;;;;;4996062;28;20053;-76
2022/12/04 12:18:59;;;;;;;39.60;17.38;;;2.40;99.90;;;;;;5064334;28;20486;-77
2022/12/04 12:21:31;;;;;;;36.58;16.75;;;2.40;99.90;;;;;;5056453;28;20044;-77
2022/12/04 12:24:12;;;;;;;36.30;15.88;;;2.40;99.90;;;;;;5050515;28;20120;-76
2022/12/04 12:26:54;;;;;;;40.30;17.30;;;2.40;99.90;;;;;;5053457;28;20040;-77
2022/12/04 12:29:45;;;;;;;30.00;14.68;;;2.40;99.90;;;;;;5069349;22;20468;-65
2022/12/04 12:32:19;;;;;;;;;;;2.40;99.90;;;;;;5058251;28;20129;-65
2022/12/04 12:34:46;;;;;;;33.47;14.23;;;2.40;99.90;;;;;;5079428;28;20014;-65
2022/12/04 12:37:22;;;;;;;33.17;15.07;;;2.40;99.90;;;;;;5056961;28;20119;-66
2022/12/04 12:40:08;;;;;;;35.17;16.63;;;2.40;99.90;;;;;;5062010;28;20036;-65
2022/12/04 12:42:42;;;;;;;31.75;14.68;;;2.40;99.90;;;;;;5072614;28;20053;-65
2022/12/04 12:45:39;;;;;;;35.20;16.10;;;2.40;99.90;;;;;;5071666;28;20626;-65
2022/12/04 12:48:42;;;;;;;31.63;14.23;;;2.40;99.90;;;;;;5049919;28;20055;-66
2022/12/04 12:51:24;;;;;;;36.67;17.08;;;2.40;99.90;;;;;;5070127;28;20454;-65
2022/12/04 12:53:52;;;;;;;34.65;15.65;;;2.40;99.90;;;;;;5073998;28;20070;-65
2022/12/04 12:56:28;;;;;;;36.40;16.25;;;2.40;99.90;;;;;;5057219;28;20046;-65
2022/12/04 12:59:00;;;;;;;37.63;16.95;;;2.40;99.90;;;;;;5075036;28;20056;-65
2022/12/04 13:02:06;;;;;;;36.13;14.73;;;2.40;99.90;;;;;;5074093;28;20040;-65
2022/12/04 13:04:39;;;;;;;37.00;17.23;;;2.40;99.90;;;;;;5008494;28;20046;-65
2022/12/04 13:07:22;;;;;;;33.22;15.25;;;2.40;99.90;;;;;;5069530;28;20125;-65
2022/12/04 13:09:59;;;;;;;37.97;16.33;;;2.40;99.90;;;;;;5075125;28;20103;-66
2022/12/04 13:12:25;;;;;;;36.58;15.18;;;2.40;99.90;;;;;;5073435;28;20853;-66
2022/12/04 13:14:51;;;;;;;29.80;13.95;;;2.50;99.90;;;;;;5068442;28;20036;-67